• Join FlightAware (Why Join?)
  • Login
  • US Flag 
05:28PM EDT


 

Airport Tracker/Info


-or-


 

Live Flight TrackerFlight Track Log ✈ ASQ6127 ✈ 11-May-2013 ✈ KIAD - CYOW

Flight Track Log - Related Links

Times and Time Zones

All times are in EDT time to prevent confusion due to time zone crossing. See the ASQ6127 flight status page for this flight to view local times or setup timezone preferences in your user account.

Time Position Orientation Groundspeed Altitude Reporting Facility
EDT Latitude Longitude Course Direction KTS MPH feet Rate Location/Type
01:40PM 38.9833 -77.5500 322° Northwest 214 246 3,200  Level Potomac TRACON
01:41PM 39.0333 -77.6000 322° Northwest 235 270 6,000 2,340 Climbing Potomac TRACON
01:43PM 39.1347 -77.5772 10° North 265 305 9,200 2,160 Climbing Washington Center
01:44PM 39.2100 -77.5578 11° North 260 299 11,400 2,100 Climbing Washington Center
01:45PM 39.2875 -77.5411 North 265 305 13,400 1,800 Climbing Washington Center
01:46PM 39.3689 -77.5217 10° North 276 318 15,100 1,800 Climbing Washington Center
01:47PM 39.4528 -77.4997 11° North 295 339 17,100 1,860 Climbing Washington Center
01:49PM 39.6572 -77.4561 North 317 365 21,300 1,740 Climbing New York Center
01:50PM 39.7489 -77.4542 North 317 365 23,000 1,620 Climbing New York Center
01:51PM 39.8453 -77.4497 North 322 371 24,600 1,560 Climbing New York Center
01:52PM 39.9375 -77.4397 North 329 379 26,200 1,320 Climbing New York Center
01:53PM 40.0347 -77.4542 354° North 335 386 27,400 1,200 Climbing New York Center
01:54PM 40.1319 -77.4692 353° North 346 398 28,600 1,140 Climbing New York Center
01:55PM 40.2308 -77.4894 351° North 351 404 29,700 1,080 Climbing New York Center
01:56PM 40.3297 -77.5072 352° North 356 410 30,900 600 Climbing New York Center
01:57PM 40.4369 -77.5286 351° North 369 425 31,000 600 Climbing New York Center
01:58PM 40.5431 -77.4953 13° North 421 484 32,100 960 Climbing New York Center
01:59PM 40.6542 -77.4514 17° North 415 478 33,000 480 Climbing New York Center
02:00PM 40.7714 -77.4025 18° North 427 491 33,100 900 Climbing New York Center
02:01PM 40.8864 -77.3589 16° North 427 491 34,800 900 Climbing New York Center
02:02PM 41.0119 -77.3106 16° North 427 491 35,000 60 Climbing New York Center
02:03PM 41.1336 -77.2617 17° North 439 505 35,000  Level New York Center
02:04PM 41.2614 -77.2103 17° North 449 517 35,000  Level New York Center
02:05PM 41.3869 -77.1586 17° North 462 532 35,000  Level New York Center
02:06PM 41.5019 -77.1114 17° North 473 544 35,000  Level New York Center
02:10PM 42.0506 -76.8864 17° North 472 543 35,000  Level Boston Center
02:11PM 42.1778 -76.8336 17° North 472 543 35,000  Level Boston Center
02:12PM 42.3069 -76.7781 18° North 472 543 35,000  Level Boston Center
02:13PM 42.4300 -76.7247 18° North 472 543 35,000  Level Boston Center
02:14PM 42.5272 -76.6864 16° North 466 536 35,000  Level Boston Center
02:15PM 42.6714 -76.6256 17° North 456 525 35,000  Level Boston Center
02:16PM 42.7922 -76.5744 17° North 456 525 35,000  Level Boston Center
02:17PM 42.9172 -76.5203 18° North 456 525 35,000  Level Boston Center
02:18PM 43.0442 -76.4664 17° North 462 532 35,000  Level Boston Center
02:19PM 43.1733 -76.4122 17° North 468 539 35,000 -60 Level Boston Center
02:20PM 43.3067 -76.3553 17° North 485 558 34,900  Descending Boston Center
02:22PM 43.4358 -76.2947 19° North 485 558 35,000 -180 Climbing Boston Center
02:23PM 43.5903 -76.2300 17° North 479 551 34,600 -1,140 Descending Boston Center
02:24PM 43.7108 -76.1744 18° North 472 543 32,800 -1,980 Descending Boston Center
02:25PM 43.8378 -76.1189 18° North 467 537 30,700 -2,100 Descending Boston Center
02:26PM 43.9372 -76.0733 18° North 467 537 28,600 -1,380 Descending Boston Center
02:27PM 44.0797 -75.9836 24° Northeast 467 537 28,000 -300 Descending Boston Center
02:28PM 44.2050 -75.9011 25° Northeast 474 545 28,000 -1,320 Level Boston Center
02:29PM 44.3539 -75.8025 25° Northeast 486 559 25,200 -3,240 Descending Boston Center
02:29PM 44.3833 -75.7833 25° Northeast 490 564 23,900 -3,480 Descending Montreal Center
02:30PM 44.5000 -75.6833 31° Northeast 480 552 20,800 -3,180 Descending Montreal Center
02:31PM 44.6167 -75.6167 22° Northeast 450 518 17,600 -3,000 Descending Montreal Center
02:32PM 44.7167 -75.5500 25° Northeast 420 483 14,900 -2,400 Descending Montreal Center
02:33PM 44.8167 -75.5167 13° North 380 437 12,900 -1,800 Descending Montreal Center
02:34PM 44.9000 -75.5167 360° North 330 380 11,300 -1,740 Descending Montreal Center
02:35PM 45.0000 -75.5167 360° North 310 357 9,500 -1,740 Descending Montreal Center
02:36PM 45.0667 -75.5000 10° North 300 345 7,900 -1,800 Descending Montreal Center
02:37PM 45.1500 -75.4500 23° Northeast 280 322 6,000 -2,040 Descending Montreal Center
02:38PM 45.2000 -75.4667 347° North 230 265 3,900 -1,740 Descending Montreal Center
02:39PM 45.2333 -75.5333 305° West 180 207 2,600 -1,140 Descending Montreal Center
02:40PM 45.2500 -75.5833 295° West 130 150 1,700 -780 Descending Montreal Center
02:41PM 45.2833 -75.6167 325° Northwest 130 150 1,100 -600 Descending Montreal Center
02:42PM 45.3000 -75.6667 295° West 130 150 500 -600 Descending Montreal Center